Time;durP1;ratioP1;P1;durP2;ratioP2;P2;SDS_P1;SDS_P2;PMS_P1;PMS_P2;Temp;Humidity;BMP_temperature;BMP_pressure;BME280_temperature;BME280_humidity;BME280_pressure;Samples;Min_cycle;Max_cycle;Signal;HPM_P1;HPM_P2
2023/06/14 00:04:20;;;;;;;5.35;2.72;;;;;;;;;;10549187;28;20054;-75
2023/06/14 00:09:23;;;;;;;6.38;2.42;;;;;;;;;;10545516;28;20275;-74
2023/06/14 00:14:28;;;;;;;4.93;2.30;;;;;;;;;;10547791;28;20100;-74
2023/06/14 00:19:35;;;;;;;5.15;2.80;;;;;;;;;;10499677;28;1069035;-76
2023/06/14 00:24:37;;;;;;;5.75;2.28;;;;;;;;;;10512522;28;20083;-74
2023/06/14 00:29:42;;;;;;;4.43;2.60;;;;;;;;;;10511638;28;20112;-75
2023/06/14 00:34:45;;;;;;;4.07;2.17;;;;;;;;;;10506732;28;20068;-75
2023/06/14 00:39:48;;;;;;;5.87;2.57;;;;;;;;;;10496824;28;20485;-75
2023/06/14 00:44:52;;;;;;;4.50;2.47;;;;;;;;;;10509328;28;20109;-74
2023/06/14 00:49:56;;;;;;;7.63;2.72;;;;;;;;;;10507012;28;20060;-75
2023/06/14 00:54:59;;;;;;;4.20;2.50;;;;;;;;;;10506918;28;20050;-74
2023/06/14 01:00:04;;;;;;;4.63;2.43;;;;;;;;;;10506159;28;20041;-75
2023/06/14 01:05:07;;;;;;;5.85;2.45;;;;;;;;;;10510009;28;20438;-74
2023/06/14 01:10:16;;;;;;;8.25;2.90;;;;;;;;;;10511712;28;20052;-75
2023/06/14 01:15:21;;;;;;;5.78;2.83;;;;;;;;;;10506155;28;20212;-74
2023/06/14 01:20:29;;;;;;;7.40;2.92;;;;;;;;;;10530210;28;20122;-74
2023/06/14 01:25:35;;;;;;;6.43;2.65;;;;;;;;;;10558433;28;20070;-75
2023/06/14 01:30:38;;;;;;;6.13;2.80;;;;;;;;;;10554509;28;20044;-75
2023/06/14 01:35:42;;;;;;;5.23;2.30;;;;;;;;;;10555128;28;20100;-75
2023/06/14 01:40:46;;;;;;;4.27;2.30;;;;;;;;;;10556665;28;20070;-75
2023/06/14 01:45:49;;;;;;;5.68;2.58;;;;;;;;;;10550666;28;20357;-75
2023/06/14 01:50:53;;;;;;;4.10;2.25;;;;;;;;;;10546405;28;20028;-75
2023/06/14 01:55:57;;;;;;;5.57;2.78;;;;;;;;;;10549118;28;20048;-74
2023/06/14 02:01:00;;;;;;;4.20;2.58;;;;;;;;;;10546851;28;20032;-74
2023/06/14 02:06:03;;;;;;;6.60;2.90;;;;;;;;;;10543417;28;20040;-75
2023/06/14 02:11:07;;;;;;;7.43;2.90;;;;;;;;;;10548876;28;20040;-75
2023/06/14 02:16:10;;;;;;;7.47;2.92;;;;;;;;;;10547698;28;20619;-75
2023/06/14 02:21:13;;;;;;;6.15;2.80;;;;;;;;;;10546990;28;20154;-76
2023/06/14 02:26:17;;;;;;;6.03;2.47;;;;;;;;;;10567667;28;20109;-74
2023/06/14 02:31:19;;;;;;;;;;;;;;;;;;10546974;28;20036;-74
2023/06/14 02:36:23;;;;;;;7.00;3.03;;;;;;;;;;10548853;28;19928;-74
2023/06/14 02:41:27;;;;;;;5.13;2.83;;;;;;;;;;10544447;28;20068;-75
2023/06/14 02:46:30;;;;;;;4.78;2.60;;;;;;;;;;10544421;28;20127;-74
2023/06/14 02:51:32;;;;;;;7.28;3.00;;;;;;;;;;10548672;28;20096;-75
2023/06/14 02:56:36;;;;;;;5.13;2.67;;;;;;;;;;10550221;28;20064;-74
2023/06/14 03:01:40;;;;;;;6.53;2.97;;;;;;;;;;10548721;28;20052;-75
2023/06/14 03:06:50;;;;;;;6.30;2.85;;;;;;;;;;10547744;28;20092;-74
2023/06/14 03:11:54;;;;;;;6.25;2.65;;;;;;;;;;10548779;28;20036;-75
2023/06/14 03:16:57;;;;;;;6.10;3.15;;;;;;;;;;10552551;28;20124;-74
2023/06/14 03:22:00;;;;;;;6.37;2.90;;;;;;;;;;10551435;28;20036;-74
2023/06/14 03:27:04;;;;;;;7.15;3.15;;;;;;;;;;10551051;28;20047;-74
2023/06/14 03:32:08;;;;;;;5.07;2.78;;;;;;;;;;10550123;28;20032;-75
2023/06/14 03:37:11;;;;;;;5.00;3.05;;;;;;;;;;10551645;28;20075;-75
2023/06/14 03:42:15;;;;;;;6.07;2.78;;;;;;;;;;10536376;28;20064;-76
2023/06/14 03:47:18;;;;;;;7.30;3.15;;;;;;;;;;10551236;28;20107;-75
2023/06/14 03:52:21;;;;;;;6.20;3.10;;;;;;;;;;10550110;28;20102;-76
2023/06/14 03:57:24;;;;;;;;;;;;;;;;;;10554632;28;20040;-75
2023/06/14 04:02:29;;;;;;;9.75;3.10;;;;;;;;;;10549688;28;19920;-75
2023/06/14 04:07:32;;;;;;;5.50;2.75;;;;;;;;;;10550657;28;20051;-75
2023/06/14 04:12:34;;;;;;;4.03;2.65;;;;;;;;;;10551489;28;20036;-74
2023/06/14 04:17:39;;;;;;;5.17;2.97;;;;;;;;;;10532453;28;20103;-75
2023/06/14 04:22:43;;;;;;;6.97;2.67;;;;;;;;;;10549109;28;20040;-75
2023/06/14 04:27:47;;;;;;;4.60;2.60;;;;;;;;;;10549132;28;20070;-74
2023/06/14 04:32:53;;;;;;;5.82;2.80;;;;;;;;;;10549496;28;20301;-74
2023/06/14 04:37:57;;;;;;;6.53;2.97;;;;;;;;;;10545357;28;20210;-76
2023/06/14 04:43:00;;;;;;;8.23;2.75;;;;;;;;;;10550007;28;20155;-75
2023/06/14 04:48:06;;;;;;;6.33;2.70;;;;;;;;;;10550796;28;20082;-73
2023/06/14 04:53:10;;;;;;;7.50;1.45;;;;;;;;;;10552684;28;20040;-74
2023/06/14 04:58:13;;;;;;;4.15;2.17;;;;;;;;;;10547822;28;20060;-76
2023/06/14 05:03:18;;;;;;;6.78;3.30;;;;;;;;;;10552048;28;20132;-74
2023/06/14 05:08:22;;;;;;;6.82;3.22;;;;;;;;;;10547958;28;20057;-75
2023/06/14 05:13:27;;;;;;;8.10;2.53;;;;;;;;;;10543448;28;20048;-77
2023/06/14 05:18:33;;;;;;;5.28;2.35;;;;;;;;;;10552432;28;20450;-79
2023/06/14 05:23:36;;;;;;;8.15;2.65;;;;;;;;;;10551260;28;20102;-78
2023/06/14 05:28:39;;;;;;;7.55;3.00;;;;;;;;;;10548212;28;20103;-79
2023/06/14 05:33:43;;;;;;;8.70;2.72;;;;;;;;;;10545998;28;20044;-77
2023/06/14 05:38:46;;;;;;;5.53;2.88;;;;;;;;;;10550454;28;20432;-78
2023/06/14 05:43:49;;;;;;;5.68;2.47;;;;;;;;;;10547257;28;20103;-77
2023/06/14 05:48:53;;;;;;;5.90;2.70;;;;;;;;;;10546461;28;20131;-77
2023/06/14 05:53:56;;;;;;;8.55;2.72;;;;;;;;;;10544319;28;20051;-77
2023/06/14 05:58:59;;;;;;;7.40;2.73;;;;;;;;;;10551399;28;20040;-78
2023/06/14 06:04:03;;;;;;;7.65;3.20;;;;;;;;;;10552865;28;20051;-80
2023/06/14 06:09:06;;;;;;;5.18;2.70;;;;;;;;;;10551024;28;20048;-79
2023/06/14 06:14:09;;;;;;;5.30;2.90;;;;;;;;;;10550250;28;20322;-79
2023/06/14 06:19:13;;;;;;;7.45;2.65;;;;;;;;;;10549285;28;20040;-78
2023/06/14 06:24:16;;;;;;;6.15;2.78;;;;;;;;;;10547692;28;20064;-78
2023/06/14 06:29:19;;;;;;;6.05;2.83;;;;;;;;;;10547919;28;20516;-79
2023/06/14 06:34:23;;;;;;;4.93;2.97;;;;;;;;;;10547242;28;20858;-79
2023/06/14 06:39:26;;;;;;;6.47;2.78;;;;;;;;;;10546684;28;20055;-79
2023/06/14 06:44:29;;;;;;;7.37;2.90;;;;;;;;;;10548395;28;20055;-79
2023/06/14 06:49:33;;;;;;;6.97;3.45;;;;;;;;;;10559425;28;20035;-79
2023/06/14 06:54:35;;;;;;;5.80;2.55;;;;;;;;;;10580477;28;20016;-78
2023/06/14 06:59:38;;;;;;;5.43;2.63;;;;;;;;;;10569123;28;20046;-80
2023/06/14 07:04:42;;;;;;;3.88;2.25;;;;;;;;;;10555407;28;20124;-78
2023/06/14 07:09:45;;;;;;;5.82;2.70;;;;;;;;;;10547803;28;20036;-79
2023/06/14 07:14:48;;;;;;;5.47;2.63;;;;;;;;;;10554340;28;20035;-78
2023/06/14 07:19:53;;;;;;;6.18;2.72;;;;;;;;;;10556670;28;20334;-79
2023/06/14 07:24:56;;;;;;;4.05;2.15;;;;;;;;;;10549887;28;20063;-79
2023/06/14 07:29:58;;;;;;;4.80;2.47;;;;;;;;;;10550358;28;20039;-79
2023/06/14 07:35:03;;;;;;;3.38;1.85;;;;;;;;;;10552592;28;20040;-79
2023/06/14 07:40:06;;;;;;;4.45;2.60;;;;;;;;;;10554381;28;20051;-79
2023/06/14 07:45:10;;;;;;;5.40;2.58;;;;;;;;;;10553533;28;20066;-77
2023/06/14 07:50:14;;;;;;;4.85;2.70;;;;;;;;;;10565330;28;20477;-80
2023/06/14 07:55:17;;;;;;;5.50;2.50;;;;;;;;;;10532115;28;20548;-78
2023/06/14 08:00:20;;;;;;;;;;;;;;;;;;10533614;28;20078;-77
2023/06/14 08:05:25;;;;;;;4.45;2.42;;;;;;;;;;10546896;28;19938;-79
2023/06/14 08:10:28;;;;;;;3.75;2.13;;;;;;;;;;10553272;28;20488;-79
2023/06/14 08:15:31;;;;;;;6.35;2.58;;;;;;;;;;10557499;28;20070;-80
2023/06/14 08:20:36;;;;;;;4.50;2.65;;;;;;;;;;10532669;28;20162;-80
2023/06/14 08:25:38;;;;;;;7.43;3.03;;;;;;;;;;10550329;28;20098;-80
2023/06/14 08:30:42;;;;;;;5.30;3.10;;;;;;;;;;10552764;28;20032;-80
2023/06/14 08:35:46;;;;;;;5.55;2.95;;;;;;;;;;10551667;28;20064;-80
2023/06/14 08:40:51;;;;;;;7.30;2.78;;;;;;;;;;10552768;28;20032;-81
2023/06/14 08:45:56;;;;;;;4.93;3.20;;;;;;;;;;10553710;28;20039;-80
2023/06/14 08:51:02;;;;;;;3.90;2.90;;;;;;;;;;10555174;28;20071;-80
2023/06/14 08:56:07;;;;;;;2.38;1.90;;;;;;;;;;10548507;28;20501;-80
2023/06/14 09:01:14;;;;;;;5.35;2.70;;;;;;;;;;10552722;28;20059;-80
2023/06/14 09:06:19;;;;;;;6.20;3.20;;;;;;;;;;10546743;28;20101;-80
2023/06/14 09:11:22;;;;;;;6.45;3.17;;;;;;;;;;10535450;28;20089;-79
2023/06/14 09:16:26;;;;;;;5.45;3.55;;;;;;;;;;10551610;28;20714;-81
2023/06/14 09:21:34;;;;;;;4.10;3.08;;;;;;;;;;10549911;28;20050;-80
2023/06/14 09:26:39;;;;;;;5.22;3.20;;;;;;;;;;10553684;28;20099;-80
2023/06/14 09:31:42;;;;;;;7.20;2.83;;;;;;;;;;10550750;28;20078;-80
2023/06/14 09:36:46;;;;;;;6.22;3.50;;;;;;;;;;10541887;28;20060;-81
2023/06/14 09:41:49;;;;;;;4.13;3.38;;;;;;;;;;10546882;28;20071;-81
2023/06/14 09:46:52;;;;;;;4.47;3.35;;;;;;;;;;10547879;28;20035;-81
2023/06/14 09:51:57;;;;;;;4.95;3.30;;;;;;;;;;10549741;28;20040;-82
2023/06/14 09:57:01;;;;;;;5.38;3.88;;;;;;;;;;10545768;28;20032;-82
2023/06/14 10:02:10;;;;;;;4.25;3.80;;;;;;;;;;10551846;28;20043;-81
2023/06/14 10:07:15;;;;;;;6.50;4.00;;;;;;;;;;10549034;28;20040;-82
2023/06/14 10:12:20;;;;;;;7.53;3.50;;;;;;;;;;10551221;28;20032;-82
2023/06/14 10:17:27;;;;;;;5.03;3.20;;;;;;;;;;10545774;28;20039;-81
2023/06/14 10:22:33;;;;;;;6.22;3.78;;;;;;;;;;10552966;28;20043;-81
2023/06/14 10:27:36;;;;;;;5.82;3.58;;;;;;;;;;10555785;28;20039;-79
2023/06/14 10:32:53;;;;;;;5.70;3.47;;;;;;;;;;10560966;28;20047;-80
2023/06/14 10:38:06;;;;;;;4.90;3.38;;;;;;;;;;10556544;28;20207;-81
2023/06/14 10:43:22;;;;;;;3.92;3.53;;;;;;;;;;10553569;28;20383;-81
2023/06/14 10:48:30;;;;;;;5.70;3.65;;;;;;;;;;10555516;28;20040;-80
2023/06/14 10:53:40;;;;;;;7.07;3.70;;;;;;;;;;10555444;28;20062;-80
2023/06/14 10:58:43;;;;;;;5.65;3.65;;;;;;;;;;10550614;28;20119;-81
2023/06/14 11:03:52;;;;;;;4.45;3.60;;;;;;;;;;10562268;28;20095;-80
2023/06/14 11:09:27;;;;;;;5.03;4.03;;;;;;;;;;10559202;28;20047;-79
2023/06/14 11:14:30;;;;;;;4.57;3.45;;;;;;;;;;10553553;28;20040;-82
2023/06/14 11:19:33;;;;;;;6.43;3.53;;;;;;;;;;10549649;28;20036;-81
2023/06/14 11:24:37;;;;;;;5.13;3.60;;;;;;;;;;10557448;28;20070;-81
2023/06/14 11:29:48;;;;;;;3.80;2.97;;;;;;;;;;10551818;28;20413;-81
2023/06/14 11:34:51;;;;;;;7.43;3.35;;;;;;;;;;10555054;28;20059;-80
2023/06/14 11:39:56;;;;;;;5.10;3.47;;;;;;;;;;10558677;28;20089;-81
2023/06/14 11:44:59;;;;;;;4.93;3.35;;;;;;;;;;10555969;28;20040;-80
2023/06/14 11:50:17;;;;;;;5.25;3.60;;;;;;;;;;10551649;28;20050;-79
2023/06/14 11:55:22;;;;;;;3.92;3.28;;;;;;;;;;10549708;28;20064;-79
2023/06/14 12:00:26;;;;;;;5.38;3.03;;;;;;;;;;10548566;28;20453;-80
2023/06/14 12:05:28;;;;;;;5.03;3.33;;;;;;;;;;10555755;28;20143;-80
2023/06/14 12:10:40;;;;;;;6.45;3.20;;;;;;;;;;10549149;28;20043;-80
2023/06/14 12:15:42;;;;;;;6.38;3.10;;;;;;;;;;10552080;28;20056;-80
2023/06/14 12:20:49;;;;;;;3.97;2.95;;;;;;;;;;10550853;28;20040;-79
2023/06/14 12:25:54;;;;;;;5.22;2.63;;;;;;;;;;10549458;28;20071;-79
2023/06/14 12:30:58;;;;;;;4.85;3.13;;;;;;;;;;10534219;28;20032;-79
2023/06/14 12:36:03;;;;;;;5.18;3.20;;;;;;;;;;10553417;28;20051;-79
2023/06/14 12:41:08;;;;;;;5.50;3.10;;;;;;;;;;10548864;28;20123;-79
2023/06/14 12:46:10;;;;;;;6.43;3.22;;;;;;;;;;10550722;28;20055;-80
2023/06/14 12:51:13;;;;;;;7.07;3.33;;;;;;;;;;10550790;28;20075;-80
2023/06/14 12:56:17;;;;;;;4.72;3.25;;;;;;;;;;10550526;28;20063;-80
2023/06/14 13:01:20;;;;;;;6.07;3.00;;;;;;;;;;10553445;28;20067;-80
2023/06/14 13:06:23;;;;;;;5.20;3.40;;;;;;;;;;10554419;28;20083;-77
2023/06/14 13:11:29;;;;;;;4.20;2.88;;;;;;;;;;10555494;28;20131;-81
2023/06/14 13:16:32;;;;;;;5.13;3.10;;;;;;;;;;10548613;28;20044;-80
2023/06/14 13:21:35;;;;;;;5.68;3.17;;;;;;;;;;10550967;28;20285;-81
2023/06/14 13:26:39;;;;;;;7.57;3.17;;;;;;;;;;10550420;28;20060;-80
2023/06/14 13:31:42;;;;;;;5.72;2.90;;;;;;;;;;10547389;28;20118;-81
2023/06/14 13:36:44;;;;;;;6.05;2.80;;;;;;;;;;10554124;28;20036;-79
2023/06/14 13:41:49;;;;;;;4.45;2.58;;;;;;;;;;10549501;28;20039;-80
2023/06/14 13:46:51;;;;;;;5.10;2.67;;;;;;;;;;10552630;28;20071;-79
2023/06/14 13:51:54;;;;;;;5.47;3.00;;;;;;;;;;10547509;28;20063;-79
2023/06/14 13:56:59;;;;;;;4.93;2.60;;;;;;;;;;10548021;28;20139;-79
2023/06/14 14:02:02;;;;;;;7.25;3.00;;;;;;;;;;10549631;28;21388;-79
2023/06/14 14:07:05;;;;;;;5.35;2.67;;;;;;;;;;10548802;28;20055;-79
2023/06/14 14:12:10;;;;;;;4.03;2.65;;;;;;;;;;10550461;28;20048;-80
2023/06/14 14:17:13;;;;;;;5.43;2.70;;;;;;;;;;10550250;28;20044;-79
2023/06/14 14:22:15;;;;;;;6.20;2.67;;;;;;;;;;10531581;28;20040;-78
2023/06/14 14:27:20;;;;;;;5.65;2.95;;;;;;;;;;10548362;28;20072;-79
2023/06/14 14:32:22;;;;;;;5.97;3.30;;;;;;;;;;10545680;28;20042;-78
2023/06/14 14:37:25;;;;;;;5.63;2.70;;;;;;;;;;10552828;28;20097;-79
2023/06/14 14:42:29;;;;;;;9.93;2.95;;;;;;;;;;10545151;28;20032;-78
2023/06/14 14:47:32;;;;;;;4.68;2.50;;;;;;;;;;10543034;28;20048;-79
2023/06/14 14:52:35;;;;;;;7.90;2.75;;;;;;;;;;10546169;28;20036;-79
2023/06/14 14:57:39;;;;;;;4.70;2.97;;;;;;;;;;10549224;28;20044;-80
2023/06/14 15:02:42;;;;;;;4.82;3.10;;;;;;;;;;10550088;28;20039;-79
2023/06/14 15:07:45;;;;;;;7.25;2.88;;;;;;;;;;10547003;28;20050;-80
2023/06/14 15:12:49;;;;;;;5.30;2.92;;;;;;;;;;10561949;28;20040;-80
2023/06/14 15:17:52;;;;;;;7.88;2.90;;;;;;;;;;10564765;28;20044;-80
2023/06/14 15:22:58;;;;;;;;;;;;;;;;;;10553545;28;20059;-80
2023/06/14 15:28:06;;;;;;;4.78;2.50;;;;;;;;;;10554624;28;19927;-79
2023/06/14 15:33:09;;;;;;;4.68;2.80;;;;;;;;;;10549747;28;20598;-80
2023/06/14 15:38:12;;;;;;;7.30;2.72;;;;;;;;;;10556997;28;20059;-80
2023/06/14 15:43:16;;;;;;;6.32;3.30;;;;;;;;;;10553700;28;20032;-80
2023/06/14 15:48:18;;;;;;;4.90;2.55;;;;;;;;;;10553858;28;20567;-79
2023/06/14 15:53:21;;;;;;;4.85;3.13;;;;;;;;;;10554305;28;20036;-80
2023/06/14 15:58:25;;;;;;;6.07;2.75;;;;;;;;;;10551723;28;20047;-80
2023/06/14 16:03:28;;;;;;;6.60;3.08;;;;;;;;;;10552925;28;20112;-78
2023/06/14 16:08:30;;;;;;;;;;;;;;;;;;10552870;28;20038;-77
2023/06/14 16:13:44;;;;;;;7.15;3.03;;;;;;;;;;10552170;28;20465;-78
2023/06/14 16:18:47;;;;;;;7.80;3.15;;;;;;;;;;10555377;28;20066;-79
2023/06/14 16:23:49;;;;;;;6.40;2.80;;;;;;;;;;10559809;28;20063;-79
2023/06/14 16:28:53;;;;;;;6.00;3.28;;;;;;;;;;10535031;28;20054;-79
2023/06/14 16:33:56;;;;;;;6.75;3.35;;;;;;;;;;10556219;28;20055;-79
2023/06/14 16:38:58;;;;;;;6.15;3.22;;;;;;;;;;10547766;28;20087;-80
2023/06/14 16:44:04;;;;;;;4.72;3.03;;;;;;;;;;10551312;28;20052;-81
2023/06/14 16:49:07;;;;;;;8.95;3.40;;;;;;;;;;10554781;28;20053;-80
2023/06/14 16:54:10;;;;;;;11.10;3.47;;;;;;;;;;10552555;28;20150;-78
2023/06/14 16:59:14;;;;;;;4.80;3.15;;;;;;;;;;10557638;28;20102;-81
2023/06/14 17:04:17;;;;;;;7.22;3.22;;;;;;;;;;10549761;28;20135;-80
2023/06/14 17:09:20;;;;;;;;;;;;;;;;;;10550738;28;20139;-80
2023/06/14 17:14:25;;;;;;;7.87;3.43;;;;;;;;;;10551550;28;19920;-81
2023/06/14 17:19:27;;;;;;;7.15;3.90;;;;;;;;;;10549158;28;20111;-80
2023/06/14 17:24:30;;;;;;;5.35;3.17;;;;;;;;;;10556045;28;20044;-79
2023/06/14 17:29:34;;;;;;;4.65;3.08;;;;;;;;;;10548546;28;20048;-79
2023/06/14 17:34:36;;;;;;;5.65;3.20;;;;;;;;;;10555092;28;20101;-79
2023/06/14 17:39:41;;;;;;;7.53;3.50;;;;;;;;;;10554107;28;20064;-79
2023/06/14 17:44:45;;;;;;;6.65;3.60;;;;;;;;;;10550233;28;20040;-78
2023/06/14 17:49:50;;;;;;;5.63;3.15;;;;;;;;;;10548701;28;20318;-80
2023/06/14 17:54:52;;;;;;;5.63;3.08;;;;;;;;;;10555731;28;20079;-78
2023/06/14 17:59:57;;;;;;;7.05;3.28;;;;;;;;;;10548585;28;20051;-79
2023/06/14 18:04:59;;;;;;;9.57;4.13;;;;;;;;;;10549874;28;20068;-78
2023/06/14 18:10:02;;;;;;;6.95;3.67;;;;;;;;;;10543614;28;20170;-80
2023/06/14 18:15:07;;;;;;;4.78;2.88;;;;;;;;;;10549032;28;20079;-80
2023/06/14 18:20:10;;;;;;;7.10;3.08;;;;;;;;;;10546539;28;20048;-79
2023/06/14 18:25:13;;;;;;;5.57;3.22;;;;;;;;;;10549994;28;20056;-85
2023/06/14 18:30:18;;;;;;;8.02;3.63;;;;;;;;;;10551091;28;20079;-80
2023/06/14 18:35:22;;;;;;;7.13;3.00;;;;;;;;;;10550736;28;20099;-79
2023/06/14 18:40:25;;;;;;;5.07;2.88;;;;;;;;;;10546282;28;20051;-79
2023/06/14 18:45:30;;;;;;;5.57;3.40;;;;;;;;;;10551852;28;20044;-80
2023/06/14 18:50:34;;;;;;;6.43;2.78;;;;;;;;;;10553323;28;20361;-79
2023/06/14 18:55:36;;;;;;;;;;;;;;;;;;10550817;28;20501;-78
2023/06/14 19:00:40;;;;;;;6.75;3.20;;;;;;;;;;10557014;28;19939;-79
2023/06/14 19:05:43;;;;;;;8.02;3.75;;;;;;;;;;10551744;28;20032;-79
2023/06/14 19:10:45;;;;;;;5.50;3.07;;;;;;;;;;10556175;28;20036;-79
2023/06/14 19:15:52;;;;;;;6.57;3.33;;;;;;;;;;10553093;28;20143;-80
2023/06/14 19:20:56;;;;;;;7.35;3.50;;;;;;;;;;10550454;28;20116;-79
2023/06/14 19:25:58;;;;;;;9.83;3.67;;;;;;;;;;10558294;28;20433;-81
2023/06/14 19:31:02;;;;;;;9.90;3.87;;;;;;;;;;10553159;28;20043;-79
2023/06/14 19:36:05;;;;;;;11.07;5.22;;;;;;;;;;10553193;28;20644;-79
2023/06/14 19:41:08;;;;;;;7.20;3.90;;;;;;;;;;10557954;28;20071;-78
2023/06/14 19:46:12;;;;;;;6.57;3.13;;;;;;;;;;10557767;28;20489;-77
2023/06/14 19:51:15;;;;;;;7.32;3.85;;;;;;;;;;10553814;28;20060;-78
2023/06/14 19:56:17;;;;;;;8.83;3.53;;;;;;;;;;10555413;28;20048;-77
2023/06/14 20:01:21;;;;;;;8.47;3.63;;;;;;;;;;10550835;28;20051;-78
2023/06/14 20:06:24;;;;;;;6.60;3.33;;;;;;;;;;10554276;28;20092;-78
2023/06/14 20:11:28;;;;;;;6.50;3.27;;;;;;;;;;10551051;28;20155;-78
2023/06/14 20:16:32;;;;;;;6.75;3.15;;;;;;;;;;10546832;28;20123;-80
2023/06/14 20:21:35;;;;;;;7.80;3.53;;;;;;;;;;10553348;28;20063;-78
2023/06/14 20:26:37;;;;;;;6.43;3.60;;;;;;;;;;10558146;28;20051;-77
2023/06/14 20:31:41;;;;;;;5.00;2.73;;;;;;;;;;10552377;28;20075;-75
2023/06/14 20:36:44;;;;;;;8.88;3.10;;;;;;;;;;10548682;28;20059;-75
2023/06/14 20:41:47;;;;;;;7.77;3.10;;;;;;;;;;10533842;28;20551;-76
2023/06/14 20:46:51;;;;;;;11.75;3.75;;;;;;;;;;10553615;28;20532;-75
2023/06/14 20:51:54;;;;;;;9.30;4.03;;;;;;;;;;10553026;28;20044;-76
2023/06/14 20:56:56;;;;;;;7.47;3.50;;;;;;;;;;10553297;28;20064;-75
2023/06/14 21:02:00;;;;;;;7.82;3.45;;;;;;;;;;10555883;28;20114;-76
2023/06/14 21:07:03;;;;;;;10.13;3.55;;;;;;;;;;10548917;28;20128;-76
2023/06/14 21:12:06;;;;;;;8.83;3.10;;;;;;;;;;10551561;28;20043;-76
2023/06/14 21:17:11;;;;;;;8.93;3.50;;;;;;;;;;10558400;28;20115;-76
2023/06/14 21:22:13;;;;;;;5.32;3.10;;;;;;;;;;10555775;28;20599;-75
2023/06/14 21:27:16;;;;;;;8.40;3.40;;;;;;;;;;10537314;28;20036;-76
2023/06/14 21:32:20;;;;;;;7.22;3.22;;;;;;;;;;10548688;28;20139;-74
2023/06/14 21:37:23;;;;;;;5.32;2.92;;;;;;;;;;10549883;28;20054;-75
2023/06/14 21:42:25;;;;;;;9.05;3.10;;;;;;;;;;10551191;28;20150;-75
2023/06/14 21:47:29;;;;;;;5.70;3.08;;;;;;;;;;10533505;28;20035;-74
2023/06/14 21:52:32;;;;;;;6.35;3.10;;;;;;;;;;10550627;28;20036;-75
2023/06/14 21:57:34;;;;;;;6.28;3.08;;;;;;;;;;10553280;28;20069;-75
2023/06/14 22:02:38;;;;;;;5.32;2.90;;;;;;;;;;10529043;28;20071;-75
2023/06/14 22:07:43;;;;;;;6.78;3.13;;;;;;;;;;10547801;28;20099;-75
2023/06/14 22:12:48;;;;;;;4.47;2.53;;;;;;;;;;10549064;28;20103;-75
2023/06/14 22:17:52;;;;;;;5.95;3.00;;;;;;;;;;10546160;28;20063;-74
2023/06/14 22:22:57;;;;;;;6.85;3.35;;;;;;;;;;10548832;28;20040;-75
2023/06/14 22:28:00;;;;;;;7.22;3.35;;;;;;;;;;10548609;28;20114;-75
2023/06/14 22:33:04;;;;;;;6.32;3.00;;;;;;;;;;10545150;28;20040;-73
2023/06/14 22:38:07;;;;;;;7.10;3.22;;;;;;;;;;10559255;28;20070;-75
2023/06/14 22:43:12;;;;;;;5.15;3.15;;;;;;;;;;10544764;28;20047;-76
2023/06/14 22:48:16;;;;;;;6.07;3.10;;;;;;;;;;10550877;28;20047;-73
2023/06/14 22:53:18;;;;;;;6.75;3.38;;;;;;;;;;10549279;28;20070;-75
2023/06/14 22:58:24;;;;;;;7.15;3.10;;;;;;;;;;10531305;28;20473;-74
2023/06/14 23:03:29;;;;;;;4.43;2.63;;;;;;;;;;10545826;28;20044;-76
2023/06/14 23:08:33;;;;;;;6.25;3.05;;;;;;;;;;10546042;28;20036;-76
2023/06/14 23:13:37;;;;;;;5.80;3.13;;;;;;;;;;10542807;28;20062;-76
2023/06/14 23:18:41;;;;;;;4.88;3.13;;;;;;;;;;10549436;28;20032;-74
2023/06/14 23:23:47;;;;;;;8.70;3.28;;;;;;;;;;10547383;28;20040;-75
2023/06/14 23:28:53;;;;;;;8.23;3.90;;;;;;;;;;10553070;28;20036;-75
2023/06/14 23:33:57;;;;;;;7.85;3.35;;;;;;;;;;10558175;28;20566;-74
2023/06/14 23:39:03;;;;;;;7.95;3.63;;;;;;;;;;10554692;28;20089;-76
2023/06/14 23:44:06;;;;;;;6.53;3.40;;;;;;;;;;10558631;28;20081;-75
2023/06/14 23:49:10;;;;;;;5.53;3.33;;;;;;;;;;10549255;28;20399;-75
2023/06/14 23:54:16;;;;;;;6.50;3.25;;;;;;;;;;10551683;28;20063;-75
2023/06/14 23:59:21;;;;;;;6.18;3.55;;;;;;;;;;10565819;28;20098;-75
